Impacts TAF Board
For situational awareness. Not to be used for flight planning purposes.
IDs:

KMGM - Montgomery/Dannely F, AL, US

Issued at 0540 UTC 03 Jul 2022
Updated at 0618 UTC 03 Jul 2022
Potential Impact None Slight Moderate High
Time0610Z 03/07Z 03/08Z 03/09Z 03/10Z 03/11Z 03/12Z 03/13Z 03/14Z 03/15Z 03/16Z 03/17Z 03/18Z 03/19Z>>
Type OBS PRVL
  [TEMP]  
PRVL
  [TEMP]  
PRVL PRVL PRVL PRVL PRVL PRVL PRVL PRVL PRVL PRVL PRVL
VIS 10 >6
  [>6]  
>6
  [>6]  
>6 >6 >6 >6 >6 >6 >6 >6 >6 >6 >6
CIG 4 --
  [9]  
--
  [9]  
9 9 9 17 35 35 45 45 45 45 45
Cover BKN SCT
  [BKN]  
SCT
  [BKN]  
OVC OVC OVC BKN BKN BKN BKN BKN BKN BKN BKN
FltCat LIFR VFR
  [IFR]  
VFR
  [IFR]  
IFR IFR IFR MVFR VFR VFR VFR VFR VFR VFR VFR
WX -- --
  [--]  
--
  [--]  
-- -- -- -- -- -- VCSH VCSH VCSH VCSH VCSH
WDir 180 VRB
[VRB]
VRB
[VRB]
VRB VRB VRB VRB VRB VRB 260 260 260 260 260
WSpd 3 0
  [0]  
0
  [0]  
0 0 0 0 3 3 6 6 6 6 6
WGst -- --
  [--]  
--
  [--]  
-- -- -- -- -- -- -- -- -- -- --
WSHgt -- --
[--]
--
[--]
-- -- -- -- -- -- -- -- -- -- --
WSDir -- --
[--]
--
[--]
-- -- -- -- -- -- -- -- -- -- --
WSSpd -- --
[--]
--
[--]
-- -- -- -- -- -- -- -- -- -- --
Raw TAF
KMGM 030540Z 0306/0406 00000KT P6SM FEW009 SCT250
  TEMPO 0306/0309 BKN009
  FM030900 00000KT P6SM OVC009
  FM031200 00000KT P6SM BKN017
  FM031300 VRB03KT P6SM BKN035
  FM031500 26006KT P6SM VCSH BKN045
  PROB30 0320/0324 VRB10G20KT 6SM TSRA BR OVC040CB
  FM040000 VRB03KT P6SM BKN250


Raw METAR
KMGM 030610Z AUTO 18003KT 10SM BKN004 24/22 A3004 RMK AO2 T02390222
KMGM 030600Z AUTO 15003KT 10SM SCT004 24/22 A3004 RMK AO2 T02390222
KMGM 030553Z AUTO 15003KT 10SM CLR 24/22 A3004 RMK AO2 SLP168 T02390222 10289 20239 403390228 56006
KMGM 030503Z AUTO 00000KT 10SM FEW009 24/22 A3004 RMK AO2 T02390222
KMGM 030453Z AUTO 00000KT 10SM FEW010 24/22 A3004 RMK AO2 SLP169 T02390222
KMGM 030353Z AUTO 15004KT 10SM CLR 24/22 A3005 RMK AO2 SLP172 T02440222

METAR Board
Radar Display
Forecast Discussion
For situational awareness. Not to be used for flight planning purposes.